createdAt,value
2023-04-16T00:02:01.976Z,65.00
2023-04-16T00:04:28.631Z,65.00
2023-04-16T00:06:55.170Z,65.00
2023-04-16T00:09:21.665Z,65.20
2023-04-16T00:11:48.156Z,65.50
2023-04-16T00:14:14.633Z,65.40
2023-04-16T00:16:41.117Z,65.40
2023-04-16T00:19:07.811Z,64.80
2023-04-16T00:21:34.503Z,64.80
2023-04-16T00:24:00.970Z,65.10
2023-04-16T00:26:27.470Z,65.40
2023-04-16T00:28:53.956Z,65.40
2023-04-16T00:31:20.477Z,65.90
2023-04-16T00:33:46.966Z,66.00
2023-04-16T00:36:13.449Z,65.70
2023-04-16T00:38:39.950Z,65.80
2023-04-16T00:41:06.437Z,65.80
2023-04-16T00:43:32.907Z,65.60
2023-04-16T00:45:59.474Z,65.70
2023-04-16T00:48:25.966Z,65.70
2023-04-16T00:50:52.461Z,65.60
2023-04-16T00:53:18.928Z,65.90
2023-04-16T00:55:45.418Z,65.60
2023-04-16T00:58:11.881Z,65.80
2023-04-16T01:00:38.389Z,66.00
2023-04-16T01:03:04.968Z,65.90
2023-04-16T01:05:31.513Z,66.50
2023-04-16T01:07:57.999Z,66.50
2023-04-16T01:10:24.479Z,66.10
2023-04-16T01:12:50.976Z,65.20
2023-04-16T01:15:17.438Z,65.60
2023-04-16T01:17:43.916Z,65.40
2023-04-16T01:20:10.431Z,65.50
2023-04-16T01:22:36.931Z,66.20
2023-04-16T01:25:03.395Z,66.00
2023-04-16T01:27:29.892Z,66.50
2023-04-16T01:29:56.376Z,66.00
2023-04-16T01:32:24.631Z,66.00
2023-04-16T01:34:51.133Z,66.00
2023-04-16T01:37:17.632Z,66.00
2023-04-16T01:39:44.113Z,65.50
2023-04-16T01:42:12.624Z,65.40
2023-04-16T01:44:39.093Z,65.60
2023-04-16T01:47:05.644Z,66.40
2023-04-16T01:49:32.140Z,66.20
2023-04-16T01:51:58.637Z,66.10
2023-04-16T01:54:25.158Z,66.30
2023-04-16T01:56:51.631Z,65.60
2023-04-16T01:59:18.119Z,65.80
2023-04-16T02:01:44.650Z,65.90
2023-04-16T02:04:11.192Z,65.70
2023-04-16T02:06:37.694Z,65.60
2023-04-16T02:09:04.144Z,65.60
2023-04-16T02:11:30.606Z,65.30
2023-04-16T02:13:57.087Z,65.40
2023-04-16T02:16:23.591Z,65.80
2023-04-16T02:18:50.108Z,65.90
2023-04-16T02:21:16.590Z,65.70
2023-04-16T02:23:43.046Z,65.70
2023-04-16T02:26:09.499Z,65.30
2023-04-16T02:28:36.645Z,65.70
2023-04-16T02:31:03.130Z,65.50
2023-04-16T02:33:29.626Z,65.90
2023-04-16T02:35:56.102Z,65.90
2023-04-16T02:38:22.581Z,65.80
2023-04-16T02:40:49.061Z,65.50
2023-04-16T02:43:15.576Z,64.80
2023-04-16T02:45:42.071Z,64.90
2023-04-16T02:48:08.560Z,65.20
2023-04-16T02:50:35.016Z,65.50
2023-04-16T02:53:01.510Z,65.50
2023-04-16T02:55:27.939Z,65.80
2023-04-16T02:57:54.435Z,65.40
2023-04-16T03:00:21.984Z,65.50
2023-04-16T03:02:48.658Z,65.40
2023-04-16T03:05:15.336Z,65.90
2023-04-16T03:07:41.836Z,65.50
2023-04-16T03:10:08.318Z,65.60
2023-04-16T03:12:34.815Z,65.20
2023-04-16T03:15:01.284Z,65.10
2023-04-16T03:17:27.764Z,64.80
2023-04-16T03:19:54.269Z,64.90
2023-04-16T03:22:20.736Z,64.60
2023-04-16T03:24:48.683Z,64.50
2023-04-16T03:27:15.143Z,64.40
2023-04-16T03:29:41.619Z,64.50
2023-04-16T03:32:08.153Z,64.90
2023-04-16T03:34:36.703Z,65.00
2023-04-16T03:37:03.180Z,65.80
2023-04-16T03:39:29.654Z,64.80
2023-04-16T03:41:56.120Z,65.30
2023-04-16T03:44:22.581Z,65.90
2023-04-16T03:46:49.086Z,65.50
2023-04-16T03:49:15.624Z,65.50
2023-04-16T03:51:42.110Z,65.30
2023-04-16T03:54:08.648Z,65.30
2023-04-16T03:56:35.135Z,65.40
2023-04-16T03:59:01.665Z,65.50
2023-04-16T04:01:28.156Z,65.90
2023-04-16T04:03:54.852Z,66.00
2023-04-16T04:06:21.376Z,65.60
2023-04-16T04:08:47.855Z,65.70
2023-04-16T04:11:14.314Z,64.70
2023-04-16T04:13:42.742Z,63.70
2023-04-16T04:16:09.278Z,63.60
2023-04-16T04:18:35.842Z,63.60
2023-04-16T04:21:02.296Z,63.50
2023-04-16T04:23:28.782Z,63.80
2023-04-16T04:25:55.297Z,63.80
2023-04-16T04:28:21.807Z,63.80
2023-04-16T04:30:48.288Z,63.80
2023-04-16T04:33:14.789Z,63.90
2023-04-16T04:35:41.262Z,63.70
2023-04-16T04:38:07.746Z,63.90
2023-04-16T04:40:34.239Z,64.00
2023-04-16T04:43:00.703Z,63.70
2023-04-16T04:45:27.961Z,64.00
2023-04-16T04:47:55.522Z,63.40
2023-04-16T04:50:22.017Z,63.90
2023-04-16T04:52:48.499Z,63.50
2023-04-16T04:55:14.974Z,63.80
2023-04-16T04:57:41.477Z,63.40
2023-04-16T05:00:07.954Z,63.40
2023-04-16T05:02:34.515Z,63.50
2023-04-16T05:05:01.109Z,63.70
2023-04-16T05:07:27.635Z,63.90
2023-04-16T05:09:54.116Z,63.10
2023-04-16T05:12:20.582Z,62.70
2023-04-16T05:14:47.062Z,62.70
2023-04-16T05:17:13.554Z,62.90
2023-04-16T05:19:40.039Z,63.30
2023-04-16T05:22:06.541Z,63.20
2023-04-16T05:24:33.006Z,63.30
2023-04-16T05:26:59.485Z,62.40
2023-04-16T05:29:25.988Z,62.60
2023-04-16T05:31:52.456Z,63.20
2023-04-16T05:34:18.961Z,62.90
2023-04-16T05:36:45.452Z,62.90
2023-04-16T05:39:12.035Z,62.70
2023-04-16T05:41:38.613Z,62.70
2023-04-16T05:44:05.117Z,62.40
2023-04-16T05:46:31.622Z,62.50
2023-04-16T05:48:58.128Z,62.10
2023-04-16T05:51:24.592Z,62.70
2023-04-16T05:53:51.066Z,63.00
2023-04-16T05:56:17.528Z,62.70
2023-04-16T05:58:43.992Z,62.50
2023-04-16T06:01:10.472Z,62.40
2023-04-16T06:03:36.990Z,62.40
2023-04-16T06:06:03.552Z,62.70
2023-04-16T06:08:30.070Z,62.50
2023-04-16T06:10:56.551Z,62.10
2023-04-16T06:13:23.044Z,61.90
2023-04-16T06:15:49.535Z,61.80
2023-04-16T06:18:16.095Z,62.40
2023-04-16T06:20:42.633Z,62.10
2023-04-16T06:23:09.096Z,61.70
2023-04-16T06:25:35.574Z,62.10
2023-04-16T06:28:02.069Z,62.30
2023-04-16T06:30:28.591Z,62.40
2023-04-16T06:32:55.158Z,63.00
2023-04-16T06:35:21.682Z,63.00
2023-04-16T06:37:48.166Z,62.50
2023-04-16T06:40:14.674Z,62.10
2023-04-16T06:42:42.328Z,62.30
2023-04-16T06:45:10.031Z,62.20
2023-04-16T06:47:36.544Z,62.50
2023-04-16T06:50:03.069Z,62.60
2023-04-16T06:52:29.522Z,62.00
2023-04-16T06:54:55.987Z,62.50
2023-04-16T06:57:22.473Z,62.40
2023-04-16T06:59:48.948Z,61.70
2023-04-16T07:02:15.555Z,61.70
2023-04-16T07:04:42.096Z,61.80
2023-04-16T07:07:12.904Z,61.60
2023-04-16T07:09:39.408Z,61.50
2023-04-16T07:12:05.887Z,61.50
2023-04-16T07:14:32.361Z,61.20
2023-04-16T07:16:58.891Z,61.80
2023-04-16T07:19:25.377Z,61.30
2023-04-16T07:21:51.851Z,61.40
2023-04-16T07:24:18.321Z,61.60
2023-04-16T07:26:48.891Z,61.50
2023-04-16T07:29:15.394Z,61.30
2023-04-16T07:31:41.894Z,61.50
2023-04-16T07:34:08.399Z,61.30
2023-04-16T07:36:34.875Z,61.20
2023-04-16T07:39:06.913Z,61.00
2023-04-16T07:41:33.387Z,61.30
2023-04-16T07:44:00.855Z,61.30
2023-04-16T07:46:30.646Z,61.50
2023-04-16T07:49:06.162Z,61.30
2023-04-16T07:51:32.684Z,61.10
2023-04-16T07:53:59.140Z,60.80
2023-04-16T07:56:25.646Z,60.60
2023-04-16T07:58:52.139Z,60.70
2023-04-16T08:01:18.639Z,60.60
2023-04-16T08:03:45.250Z,60.50
2023-04-16T08:06:11.882Z,60.90
2023-04-16T08:08:38.366Z,60.30
2023-04-16T08:11:04.858Z,60.20
2023-04-16T08:13:33.093Z,60.20
2023-04-16T08:16:00.196Z,60.00
2023-04-16T08:18:26.716Z,59.90
2023-04-16T08:20:53.205Z,59.80
2023-04-16T08:23:19.666Z,59.90
2023-04-16T08:25:46.126Z,59.90
2023-04-16T08:28:12.936Z,59.90
2023-04-16T08:30:39.412Z,60.00
2023-04-16T08:33:05.977Z,59.90
2023-04-16T08:35:32.560Z,59.80
2023-04-16T08:38:00.554Z,59.90
2023-04-16T08:40:28.244Z,59.90
2023-04-16T08:42:54.731Z,60.00
2023-04-16T08:45:21.231Z,60.00
2023-04-16T08:47:47.991Z,60.10
2023-04-16T08:50:14.522Z,60.20
2023-04-16T08:52:41.010Z,60.30
2023-04-16T08:55:07.527Z,60.30
2023-04-16T08:57:36.959Z,61.10
2023-04-16T09:00:03.431Z,60.40
2023-04-16T09:02:30.042Z,60.40
2023-04-16T09:04:56.754Z,60.30
2023-04-16T09:07:25.011Z,60.40
2023-04-16T09:09:51.480Z,60.40
2023-04-16T09:12:17.968Z,60.40
2023-04-16T09:14:44.442Z,60.40
2023-04-16T09:17:10.938Z,60.50
2023-04-16T09:19:37.431Z,60.50
2023-04-16T09:22:03.931Z,60.40
2023-04-16T09:24:30.411Z,60.50
2023-04-16T09:27:00.982Z,60.40
2023-04-16T09:29:27.444Z,60.40
2023-04-16T09:31:54.003Z,60.20
2023-04-16T09:34:20.561Z,60.30
2023-04-16T09:36:47.047Z,60.30
2023-04-16T09:39:13.520Z,60.40
2023-04-16T09:41:40.069Z,60.40
2023-04-16T09:44:06.584Z,60.30
2023-04-16T09:46:33.315Z,60.30
2023-04-16T09:48:59.790Z,60.50
2023-04-16T09:51:26.293Z,60.60
2023-04-16T09:53:52.769Z,61.40
2023-04-16T09:56:19.274Z,60.50
2023-04-16T09:58:45.757Z,60.80
2023-04-16T10:01:12.378Z,60.50
2023-04-16T10:03:39.171Z,60.60
2023-04-16T10:06:05.853Z,60.60
2023-04-16T10:08:37.056Z,60.50
2023-04-16T10:11:03.541Z,60.70
2023-04-16T10:13:31.105Z,60.80
2023-04-16T10:15:57.603Z,60.90
2023-04-16T10:18:25.041Z,60.80
2023-04-16T10:20:51.508Z,60.90
2023-04-16T10:23:18.006Z,60.80
2023-04-16T10:25:44.486Z,60.70
2023-04-16T10:28:13.043Z,61.00
2023-04-16T10:30:39.624Z,60.90
2023-04-16T10:33:06.142Z,60.80
2023-04-16T10:35:32.631Z,60.80
2023-04-16T10:37:59.103Z,60.80
2023-04-16T10:40:25.602Z,60.90
2023-04-16T10:42:52.105Z,60.90
2023-04-16T10:45:18.580Z,60.90
2023-04-16T10:47:45.132Z,60.90
2023-04-16T10:50:11.635Z,60.90
2023-04-16T10:52:38.114Z,60.80
2023-04-16T10:55:04.610Z,60.80
2023-04-16T10:57:31.074Z,60.90
2023-04-16T10:59:57.539Z,61.10
2023-04-16T11:02:25.851Z,60.90
2023-04-16T11:04:53.777Z,61.10
2023-04-16T11:07:20.395Z,61.00
2023-04-16T11:09:46.881Z,60.90
2023-04-16T11:12:13.379Z,60.90
2023-04-16T11:14:39.871Z,61.00
2023-04-16T11:17:06.353Z,61.00
2023-04-16T11:19:32.824Z,61.20
2023-04-16T11:21:59.324Z,61.00
2023-04-16T11:24:26.308Z,61.00
2023-04-16T11:26:52.858Z,61.00
2023-04-16T11:29:19.353Z,61.00
2023-04-16T11:31:45.945Z,61.10
2023-04-16T11:34:12.455Z,61.00
2023-04-16T11:36:38.945Z,60.90
2023-04-16T11:39:05.421Z,61.00
2023-04-16T11:41:31.971Z,61.00
2023-04-16T11:43:58.460Z,61.00
2023-04-16T11:46:27.718Z,60.80
2023-04-16T11:48:54.574Z,60.90
2023-04-16T11:51:21.120Z,61.00
2023-04-16T11:53:47.611Z,60.90
2023-04-16T11:56:14.122Z,60.80
2023-04-16T11:58:42.473Z,60.90
2023-04-16T12:01:09.981Z,60.80
2023-04-16T12:03:36.776Z,60.80
2023-04-16T12:06:03.354Z,60.80
2023-04-16T12:08:29.842Z,60.70
2023-04-16T12:10:56.326Z,60.90
2023-04-16T12:13:22.819Z,60.80
2023-04-16T12:15:49.288Z,60.90
2023-04-16T12:18:15.796Z,60.90
2023-04-16T12:20:43.109Z,60.70
2023-04-16T12:23:09.596Z,60.80
2023-04-16T12:25:36.065Z,61.00
2023-04-16T12:28:02.538Z,60.80
2023-04-16T12:30:29.023Z,60.80
2023-04-16T12:32:57.925Z,60.90
2023-04-16T12:35:25.586Z,60.80
2023-04-16T12:37:52.048Z,61.00
2023-04-16T12:40:18.510Z,60.90
2023-04-16T12:42:44.982Z,60.80
2023-04-16T12:45:11.443Z,61.00
2023-04-16T12:47:37.972Z,61.00
2023-04-16T12:50:04.444Z,60.80
2023-04-16T12:52:30.930Z,60.80
2023-04-16T12:54:57.403Z,60.80
2023-04-16T12:57:23.876Z,60.80
2023-04-16T12:59:50.355Z,60.70
2023-04-16T13:02:17.067Z,60.80
2023-04-16T13:04:43.732Z,60.90
2023-04-16T13:07:10.308Z,60.80
2023-04-16T13:09:37.811Z,60.90
2023-04-16T13:12:06.049Z,60.80
2023-04-16T13:14:32.511Z,60.70
2023-04-16T13:16:58.965Z,60.80
2023-04-16T13:19:25.435Z,60.80
2023-04-16T13:21:51.903Z,60.80
2023-04-16T13:24:18.387Z,60.50
2023-04-16T13:26:44.929Z,60.60
2023-04-16T13:29:11.707Z,60.60
2023-04-16T13:31:38.413Z,60.70
2023-04-16T13:34:04.932Z,60.70
2023-04-16T13:36:31.401Z,60.60
2023-04-16T13:38:57.875Z,60.60
2023-04-16T13:41:24.335Z,60.60
2023-04-16T13:43:50.823Z,60.60
2023-04-16T13:46:17.358Z,60.60
2023-04-16T13:48:49.224Z,60.70
2023-04-16T13:51:15.702Z,60.50
2023-04-16T13:53:42.210Z,60.50
2023-04-16T13:56:08.702Z,60.50
2023-04-16T13:58:37.215Z,60.60
2023-04-16T14:01:03.754Z,60.50
2023-04-16T14:03:30.438Z,60.50
2023-04-16T14:05:56.970Z,60.50
2023-04-16T14:08:23.462Z,60.50
2023-04-16T14:10:49.963Z,61.20
2023-04-16T14:13:16.454Z,60.40
2023-04-16T14:15:42.938Z,60.40
2023-04-16T14:18:09.475Z,60.40
2023-04-16T14:20:35.961Z,60.30
2023-04-16T14:23:02.493Z,60.60
2023-04-16T14:25:28.975Z,60.90
2023-04-16T14:27:55.460Z,60.60
2023-04-16T14:30:21.938Z,60.60
2023-04-16T14:32:48.464Z,61.00
2023-04-16T14:35:19.414Z,61.00
2023-04-16T14:37:45.930Z,61.10
2023-04-16T14:40:12.407Z,61.10
2023-04-16T14:42:43.282Z,60.90
2023-04-16T14:45:09.764Z,61.00
2023-04-16T14:47:36.245Z,60.90
2023-04-16T14:50:02.730Z,60.90
2023-04-16T14:52:29.227Z,60.90
2023-04-16T14:54:55.722Z,61.20
2023-04-16T14:57:22.196Z,61.40
2023-04-16T14:59:48.668Z,61.20
2023-04-16T15:02:15.184Z,61.10
2023-04-16T15:04:41.716Z,60.90
2023-04-16T15:07:13.296Z,61.10
2023-04-16T15:09:39.782Z,61.20
2023-04-16T15:12:06.255Z,60.80
2023-04-16T15:14:37.286Z,60.60
2023-04-16T15:17:03.891Z,61.00
2023-04-16T15:19:30.426Z,61.20
2023-04-16T15:21:56.925Z,61.20
2023-04-16T15:24:23.391Z,60.80
2023-04-16T15:26:49.865Z,60.60
2023-04-16T15:29:16.339Z,60.50
2023-04-16T15:31:43.244Z,60.50
2023-04-16T15:34:09.837Z,60.60
2023-04-16T15:36:36.461Z,60.50
2023-04-16T15:39:02.936Z,60.40
2023-04-16T15:41:29.412Z,61.00
2023-04-16T15:43:55.913Z,60.40
2023-04-16T15:46:22.439Z,60.40
2023-04-16T15:48:48.992Z,60.50
2023-04-16T15:51:15.462Z,60.30
2023-04-16T15:53:41.945Z,60.20
2023-04-16T15:56:08.412Z,60.20
2023-04-16T15:58:34.901Z,60.30
2023-04-16T16:01:01.389Z,60.10
2023-04-16T16:03:28.034Z,60.40
2023-04-16T16:05:54.572Z,60.40
2023-04-16T16:08:21.059Z,60.50
2023-04-16T16:10:47.529Z,60.30
2023-04-16T16:13:14.024Z,60.30
2023-04-16T16:15:40.699Z,60.30
2023-04-16T16:18:07.240Z,60.30
2023-04-16T16:20:33.742Z,60.20
2023-04-16T16:23:00.218Z,60.50
2023-04-16T16:25:26.689Z,60.30
2023-04-16T16:27:53.139Z,60.30
2023-04-16T16:30:19.612Z,60.30
2023-04-16T16:32:46.107Z,60.40
2023-04-16T16:35:12.657Z,60.40
2023-04-16T16:37:39.164Z,60.30
2023-04-16T16:40:05.634Z,60.20
2023-04-16T16:42:32.138Z,60.30
2023-04-16T16:44:58.628Z,60.20
2023-04-16T16:47:25.197Z,60.30
2023-04-16T16:49:51.726Z,60.20
2023-04-16T16:52:18.197Z,60.30
2023-04-16T16:54:44.692Z,60.10
2023-04-16T16:57:11.158Z,60.40
2023-04-16T16:59:37.648Z,60.40
2023-04-16T17:02:04.156Z,60.30
2023-04-16T17:04:30.706Z,60.30
2023-04-16T17:06:57.221Z,60.20
2023-04-16T17:09:23.736Z,60.20
2023-04-16T17:11:50.232Z,60.20
2023-04-16T17:14:19.392Z,60.10
2023-04-16T17:16:45.901Z,60.20
2023-04-16T17:19:12.569Z,60.10
2023-04-16T17:21:39.210Z,60.10
2023-04-16T17:24:05.713Z,60.00
2023-04-16T17:26:32.177Z,60.00
2023-04-16T17:28:58.679Z,60.00
2023-04-16T17:31:26.904Z,60.00
2023-04-16T17:33:53.645Z,60.00
2023-04-16T17:36:20.146Z,60.00
2023-04-16T17:38:46.622Z,60.10
2023-04-16T17:41:13.097Z,60.20
2023-04-16T17:43:39.611Z,60.00
2023-04-16T17:46:06.133Z,60.00
2023-04-16T17:48:32.644Z,60.10
2023-04-16T17:50:59.151Z,60.10
2023-04-16T17:53:25.619Z,60.20
2023-04-16T17:55:53.169Z,60.20
2023-04-16T17:58:21.126Z,60.10
2023-04-16T18:00:47.554Z,60.20
2023-04-16T18:03:14.176Z,60.00
2023-04-16T18:05:40.766Z,60.10
2023-04-16T18:08:07.263Z,60.00
2023-04-16T18:10:37.433Z,60.10
2023-04-16T18:13:03.901Z,60.10
2023-04-16T18:15:30.431Z,60.10
2023-04-16T18:17:56.956Z,60.10
2023-04-16T18:20:23.465Z,60.20
2023-04-16T18:22:49.949Z,60.20
2023-04-16T18:25:16.498Z,60.40
2023-04-16T18:27:43.073Z,60.40
2023-04-16T18:30:19.576Z,60.40
2023-04-16T18:35:21.194Z,60.60
2023-04-16T18:37:47.679Z,60.60
2023-04-16T18:40:14.164Z,60.50
2023-04-16T18:42:40.632Z,61.40
2023-04-16T18:45:07.130Z,61.10
2023-04-16T18:47:33.640Z,61.60
2023-04-16T18:50:00.183Z,61.50
2023-04-16T18:52:26.660Z,61.50
2023-04-16T18:54:53.149Z,61.30
2023-04-16T18:57:19.625Z,61.20
2023-04-16T18:59:46.110Z,61.20
2023-04-16T19:02:12.609Z,61.20
2023-04-16T19:04:39.179Z,61.20
2023-04-16T19:07:05.689Z,61.40
2023-04-16T19:09:32.199Z,62.20
2023-04-16T19:12:01.434Z,62.50
2023-04-16T19:14:27.934Z,62.50
2023-04-16T19:16:54.406Z,62.40
2023-04-16T19:19:20.921Z,62.30
2023-04-16T19:21:47.397Z,62.40
2023-04-16T19:24:13.909Z,62.40
2023-04-16T19:26:40.388Z,62.70
2023-04-16T19:29:06.878Z,62.90
2023-04-16T19:31:33.380Z,63.40
2023-04-16T19:33:59.873Z,63.40
2023-04-16T19:36:26.351Z,63.60
2023-04-16T19:38:52.823Z,63.00
2023-04-16T19:41:19.311Z,62.70
2023-04-16T19:43:45.780Z,62.60
2023-04-16T19:46:12.273Z,62.70
2023-04-16T19:48:38.773Z,63.10
2023-04-16T19:51:05.262Z,63.30
2023-04-16T19:53:31.754Z,63.00
2023-04-16T19:55:58.240Z,63.00
2023-04-16T19:58:24.714Z,63.10
2023-04-16T20:00:51.220Z,63.00
2023-04-16T20:03:17.707Z,62.70
2023-04-16T20:05:44.211Z,62.70
2023-04-16T20:08:10.672Z,62.50
2023-04-16T20:10:37.138Z,62.50
2023-04-16T20:13:03.620Z,62.70
2023-04-16T20:15:30.143Z,62.50
2023-04-16T20:17:56.701Z,62.60
2023-04-16T20:20:23.244Z,63.10
2023-04-16T20:22:49.730Z,63.20
2023-04-16T20:25:16.247Z,63.20
2023-04-16T20:27:42.712Z,62.90
2023-04-16T20:30:09.202Z,62.60
2023-04-16T20:32:35.680Z,62.70
2023-04-16T20:35:02.225Z,62.50
2023-04-16T20:37:28.689Z,62.90
2023-04-16T20:39:55.174Z,63.10
2023-04-16T20:42:21.660Z,63.40
2023-04-16T20:44:48.155Z,63.40
2023-04-16T20:47:14.633Z,63.00
2023-04-16T20:49:41.153Z,63.20
2023-04-16T20:52:07.625Z,63.20
2023-04-16T20:54:34.078Z,63.00
2023-04-16T20:57:00.545Z,62.60
2023-04-16T20:59:27.031Z,62.90
2023-04-16T21:01:53.608Z,63.00
2023-04-16T21:04:20.199Z,63.00
2023-04-16T21:06:46.788Z,63.90
2023-04-16T21:09:13.432Z,64.40
2023-04-16T21:11:40.016Z,64.40
2023-04-16T21:14:06.495Z,64.40
2023-04-16T21:16:33.094Z,64.30
2023-04-16T21:18:59.656Z,64.10
2023-04-16T21:21:26.141Z,63.90
2023-04-16T21:23:52.612Z,64.10
2023-04-16T21:26:19.093Z,64.20
2023-04-16T21:28:45.570Z,64.50
2023-04-16T21:34:02.461Z,64.90
2023-04-16T21:36:28.957Z,64.30
2023-04-16T21:38:55.544Z,64.60
2023-04-16T21:41:22.008Z,65.10
2023-04-16T21:43:48.529Z,64.20
2023-04-16T21:46:15.042Z,64.60
2023-04-16T21:48:41.524Z,64.40
2023-04-16T21:51:08.041Z,64.30
2023-04-16T21:53:34.551Z,63.80
2023-04-16T21:56:01.055Z,64.30
2023-04-16T21:58:27.549Z,64.50
2023-04-16T22:00:55.614Z,64.70
2023-04-16T22:03:22.325Z,64.90
2023-04-16T22:05:48.955Z,65.00
2023-04-16T22:08:24.092Z,64.80
2023-04-16T22:10:51.358Z,64.50
2023-04-16T22:13:17.997Z,64.60
2023-04-16T22:15:44.528Z,65.00
2023-04-16T22:18:11.030Z,65.20
2023-04-16T22:20:37.527Z,65.70
2023-04-16T22:23:04.026Z,65.70
2023-04-16T22:25:30.519Z,66.30
2023-04-16T22:27:57.034Z,65.90
2023-04-16T22:30:23.530Z,66.00
2023-04-16T22:32:50.060Z,65.70
2023-04-16T22:35:16.539Z,66.00
2023-04-16T22:37:43.020Z,65.90
2023-04-16T22:40:09.511Z,65.80
2023-04-16T22:42:36.002Z,65.90
2023-04-16T22:45:02.495Z,66.20
2023-04-16T22:47:29.023Z,66.20
2023-04-16T22:49:55.534Z,66.20
2023-04-16T22:52:22.040Z,66.20
2023-04-16T22:54:48.527Z,66.30
2023-04-16T22:57:15.084Z,65.90
2023-04-16T22:59:41.580Z,65.90
2023-04-16T23:02:08.176Z,65.60
2023-04-16T23:04:34.730Z,65.80
2023-04-16T23:07:01.358Z,65.70
2023-04-16T23:09:27.840Z,65.80
2023-04-16T23:11:54.350Z,65.60
2023-04-16T23:14:20.824Z,66.10
2023-04-16T23:16:47.347Z,66.20
2023-04-16T23:19:13.882Z,66.20
2023-04-16T23:21:40.395Z,66.60
2023-04-16T23:24:06.875Z,67.00
2023-04-16T23:26:33.353Z,67.10
2023-04-16T23:28:59.831Z,67.00
2023-04-16T23:31:26.354Z,67.50
2023-04-16T23:33:52.870Z,66.90
2023-04-16T23:36:19.352Z,66.40
2023-04-16T23:38:45.824Z,66.10
2023-04-16T23:41:12.298Z,66.50
2023-04-16T23:43:38.786Z,66.10
2023-04-16T23:46:05.377Z,66.00
2023-04-16T23:48:31.888Z,65.80
2023-04-16T23:50:58.360Z,65.30
2023-04-16T23:53:24.824Z,65.50
2023-04-16T23:55:51.278Z,65.20
2023-04-16T23:58:17.767Z,65.30
